Time;durP1;ratioP1;P1;durP2;ratioP2;P2;SDS_P1;SDS_P2;PMS_P1;PMS_P2;Temp;Humidity;BMP_temperature;BMP_pressure;BME280_temperature;BME280_humidity;BME280_pressure;Samples;Min_cycle;Max_cycle;Signal;HPM_P1;HPM_P2
2021/11/18 00:01:21;;;;;;;;;;;;;;;-143.85;100.00;70650.75;5077575;28;19916;-75
2021/11/18 00:03:46;;;;;;;;;;;;;;;-143.85;100.00;70650.75;5076541;28;19913;-76
2021/11/18 00:06:12;;;;;;;;;;;;;;;-143.85;100.00;70650.75;5079214;28;20011;-75
2021/11/18 00:08:38;;;;;;;;;;;;;;;-143.85;100.00;70650.75;5082563;28;19951;-77
2021/11/18 00:11:05;;;;;;;;;;;;;;;-143.85;100.00;70650.75;5079848;28;19912;-78
2021/11/18 00:13:32;;;;;;;;;;;;;;;-143.85;100.00;70650.75;5084740;28;20364;-80
2021/11/18 00:15:57;;;;;;;;;;;;;;;-143.85;100.00;70650.75;5086176;28;19947;-77
2021/11/18 00:18:25;;;;;;;;;;;;;;;-143.85;100.00;70650.75;5084205;28;20384;-81
2021/11/18 00:20:52;;;;;;;;;;;;;;;-143.85;100.00;70650.75;5081977;28;19975;-79
2021/11/18 00:23:18;;;;;;;;;;;;;;;-143.85;100.00;70650.75;5081792;28;19935;-79
2021/11/18 00:25:44;;;;;;;;;;;;;;;-143.85;100.00;70650.75;5080721;28;19912;-78
2021/11/18 00:28:09;;;;;;;;;;;;;;;-143.85;100.00;70650.75;5080084;28;20007;-76
2021/11/18 00:30:35;;;;;;;;;;;;;;;-143.85;100.00;70650.75;5082200;28;19912;-78
2021/11/18 00:33:01;;;;;;;;;;;;;;;-143.85;100.00;70650.75;5084242;28;19919;-76
2021/11/18 00:35:28;;;;;;;;;;;;;;;-143.85;100.00;70650.75;5078992;28;19962;-79
2021/11/18 00:37:54;;;;;;;;;;;;;;;-143.85;100.00;70650.75;5080481;28;19912;-76
2021/11/18 00:40:22;;;;;;;;;;;;;;;-143.85;100.00;70650.75;5080123;28;19913;-78
2021/11/18 00:42:47;;;;;;;;;;;;;;;-143.85;100.00;70650.75;5078048;28;19912;-79
2021/11/18 00:45:15;;;;;;;;;;;;;;;-143.85;100.00;70650.75;5077284;28;19919;-78
2021/11/18 00:47:41;;;;;;;;;;;;;;;-143.85;100.00;70650.75;5075924;28;19975;-79
2021/11/18 00:50:07;;;;;;;;;;;;;;;-143.85;100.00;70650.75;5078286;28;19960;-81
2021/11/18 00:52:33;;;;;;;;;;;;;;;-143.85;100.00;70650.75;5082623;28;19952;-82
2021/11/18 00:54:58;;;;;;;;;;;;;;;-143.85;100.00;70650.75;5082784;28;19983;-75
2021/11/18 00:57:24;;;;;;;;;;;;;;;-143.85;100.00;70650.75;5090240;28;19912;-76
2021/11/18 00:59:49;;;;;;;;;;;;;;;-143.85;100.00;70650.75;5092310;28;19976;-79
2021/11/18 01:02:16;;;;;;;;;;;;;;;-143.85;100.00;70650.75;5089697;28;19943;-82
2021/11/18 01:04:41;;;;;;;;;;;;;;;-143.85;100.00;70650.75;5089682;28;19912;-82
2021/11/18 01:07:07;;;;;;;;;;;;;;;-143.85;100.00;70650.75;5089616;28;19919;-81
2021/11/18 01:09:32;;;;;;;;;;;;;;;-143.85;100.00;70650.75;5086962;28;19916;-82
2021/11/18 01:11:57;;;;;;;;;;;;;;;-143.85;100.00;70650.75;5087268;28;19975;-82
2021/11/18 01:14:23;;;;;;;;;;;;;;;-143.85;100.00;70650.75;5085586;28;19913;-83
2021/11/18 01:16:50;;;;;;;;;;;;;;;-143.85;100.00;70650.75;5086241;28;19912;-83
2021/11/18 01:19:15;;;;;;;;;;;;;;;-143.85;100.00;70650.75;5084528;28;19917;-84
2021/11/18 01:21:42;;;;;;;;;;;;;;;-143.85;100.00;70650.75;5085095;28;20381;-84
2021/11/18 01:24:08;;;;;;;;;;;;;;;-143.85;100.00;70650.75;5087861;23;20335;-89
2021/11/18 01:26:33;;;;;;;;;;;;;;;-143.85;100.00;70650.75;5013417;28;19913;-87
2021/11/18 01:29:00;;;;;;;;;;;;;;;-143.85;100.00;70650.75;5013494;28;19909;-88
2021/11/18 01:31:26;;;;;;;;;;;;;;;-143.85;100.00;70650.75;5013406;28;19996;-86
2021/11/18 01:33:51;;;;;;;;;;;;;;;-143.85;100.00;70650.75;5013314;28;19960;-86
2021/11/18 01:36:17;;;;;;;;;;;;;;;-143.85;100.00;70650.75;5013441;28;19909;-86
2021/11/18 01:38:43;;;;;;;;;;;;;;;-143.85;100.00;70650.75;5013418;28;19909;-86
2021/11/18 01:41:10;;;;;;;;;;;;;;;-143.85;100.00;70650.75;5013151;28;20274;-88
2021/11/18 01:43:37;;;;;;;;;;;;;;;-143.85;100.00;70650.75;5013840;28;19910;-86
2021/11/18 01:46:05;;;;;;;;;;;;;;;-143.85;100.00;70650.75;5013147;28;20009;-88
2021/11/18 01:48:30;;;;;;;;;;;;;;;-143.85;100.00;70650.75;5013090;28;19909;-85
2021/11/18 01:50:55;;;;;;;;;;;;;;;-143.85;100.00;70650.75;5013021;28;19967;-86
2021/11/18 01:53:23;;;;;;;;;;;;;;;-143.85;100.00;70650.75;5012994;28;19983;-86
2021/11/18 01:55:48;;;;;;;;;;;;;;;-143.85;100.00;70650.75;5012907;28;20340;-87
2021/11/18 01:58:14;;;;;;;;;;;;;;;-143.85;100.00;70650.75;5013176;28;19944;-87
2021/11/18 02:00:45;;;;;;;;;;;;;;;-143.85;100.00;70650.75;5013018;28;19909;-87
2021/11/18 02:03:11;;;;;;;;;;;;;;;-143.85;100.00;70650.75;5013045;28;19916;-88
2021/11/18 02:05:38;;;;;;;;;;;;;;;-143.85;100.00;70650.75;5012829;28;19910;-85
2021/11/18 02:08:04;;;;;;;;;;;;;;;-143.85;100.00;70650.75;5012812;28;19966;-87
2021/11/18 02:10:50;;;;;;;;;;;;;;;-143.85;100.00;70650.75;5012813;28;19913;-86
2021/11/18 02:13:16;;;;;;;;;;;;;;;-143.85;100.00;70650.75;5011902;28;19917;-86
2021/11/18 02:15:55;;;;;;;;;;;;;;;-143.85;100.00;70650.75;5012787;28;19996;-86
2021/11/18 02:18:26;;;;;;;;;;;;;;;-143.85;100.00;70650.75;5012367;28;19909;-87
2021/11/18 02:20:53;;;;;;;;;;;;;;;-143.85;100.00;70650.75;5012519;28;19917;-86
2021/11/18 02:23:23;;;;;;;;;;;;;;;-143.85;100.00;70650.75;5012566;28;19956;-87
2021/11/18 02:25:50;;;;;;;;;;;;;;;-143.85;100.00;70650.75;5012650;28;19967;-87
2021/11/18 02:28:16;;;;;;;;;;;;;;;-143.85;100.00;70650.75;5012752;28;19909;-85
2021/11/18 02:30:42;;;;;;;;;;;;;;;-143.85;100.00;70650.75;5014377;28;19915;-87
2021/11/18 02:33:07;;;;;;;;;;;;;;;-143.85;100.00;70650.75;5016623;28;20008;-85
2021/11/18 02:35:34;;;;;;;;;;;;;;;-143.85;100.00;70650.75;5016605;28;19913;-87
2021/11/18 02:37:59;;;;;;;;;;;;;;;-143.85;100.00;70650.75;5016555;28;20376;-88
2021/11/18 02:40:27;;;;;;;;;;;;;;;-143.85;100.00;70650.75;5016464;28;19910;-87
2021/11/18 02:42:53;;;;;;;;;;;;;;;-143.85;100.00;70650.75;5016314;28;19909;-88
2021/11/18 02:45:21;;;;;;;;;;;;;;;-143.85;100.00;70650.75;5017715;28;19917;-87
2021/11/18 02:47:47;;;;;;;;;;;;;;;-143.85;100.00;70650.75;5016471;28;19917;-90
2021/11/18 02:50:15;;;;;;;;;;;;;;;-143.85;100.00;70650.75;5017484;28;19913;-90
2021/11/18 02:52:41;;;;;;;;;;;;;;;-143.85;100.00;70650.75;5016877;28;19909;-87
2021/11/18 02:55:11;;;;;;;;;;;;;;;-143.85;100.00;70650.75;5016261;28;20289;-88
2021/11/18 02:57:36;;;;;;;;;;;;;;;-143.85;100.00;70650.75;5016171;28;19917;-86
2021/11/18 03:00:04;;;;;;;;;;;;;;;-143.85;100.00;70650.75;5016159;28;19969;-88
2021/11/18 03:02:30;;;;;;;;;;;;;;;-143.85;100.00;70650.75;5016897;28;19982;-86
2021/11/18 03:04:55;;;;;;;;;;;;;;;-143.85;100.00;70650.75;5016083;28;19913;-88
2021/11/18 03:07:20;;;;;;;;;;;;;;;-143.85;100.00;70650.75;5015968;28;19917;-87
2021/11/18 03:09:46;;;;;;;;;;;;;;;-143.85;100.00;70650.75;5016038;28;19961;-86
2021/11/18 03:12:11;;;;;;;;;;;;;;;-143.85;100.00;70650.75;5015898;28;19916;-87
2021/11/18 03:14:36;;;;;;;;;;;;;;;-143.85;100.00;70650.75;5015992;28;19917;-87
2021/11/18 03:17:02;;;;;;;;;;;;;;;-143.85;100.00;70650.75;5015855;28;19914;-87
2021/11/18 03:19:27;;;;;;;;;;;;;;;-143.85;100.00;70650.75;5015818;28;19909;-88
2021/11/18 03:21:52;;;;;;;;;;;;;;;-143.85;100.00;70650.75;5015777;28;19934;-86
2021/11/18 03:24:18;;;;;;;;;;;;;;;-143.85;100.00;70650.75;5015329;28;19956;-86
2021/11/18 03:26:44;;;;;;;;;;;;;;;-143.85;100.00;70650.75;5015887;28;19959;-88
2021/11/18 03:29:09;;;;;;;;;;;;;;;-143.85;100.00;70650.75;5015832;28;19909;-85
2021/11/18 03:31:34;;;;;;;;;;;;;;;-143.85;100.00;70650.75;5015598;28;20460;-87
2021/11/18 03:34:04;;;;;;;;;;;;;;;-143.85;100.00;70650.75;5015687;28;19960;-85
2021/11/18 03:36:30;;;;;;;;;;;;;;;-143.85;100.00;70650.75;5015690;28;20365;-88
2021/11/18 03:38:56;;;;;;;;;;;;;;;-143.85;100.00;70650.75;5015365;28;19913;-87
2021/11/18 03:41:23;;;;;;;;;;;;;;;-143.85;100.00;70650.75;5015063;28;20328;-86
2021/11/18 03:43:50;;;;;;;;;;;;;;;-143.85;100.00;70650.75;5015450;28;19909;-87
2021/11/18 03:46:16;;;;;;;;;;;;;;;-143.85;100.00;70650.75;5015274;28;19924;-87
2021/11/18 03:48:41;;;;;;;;;;;;;;;-143.85;100.00;70650.75;5015428;28;19909;-86
2021/11/18 03:51:08;;;;;;;;;;;;;;;-143.85;100.00;70650.75;5015318;28;19932;-87
2021/11/18 03:53:34;;;;;;;;;;;;;;;-143.85;100.00;70650.75;5015121;28;20342;-85
2021/11/18 03:56:08;;;;;;;;;;;;;;;-143.85;100.00;70650.75;5015144;28;19944;-87
2021/11/18 03:58:34;;;;;;;;;;;;;;;-143.85;100.00;70650.75;5015223;28;19910;-86
2021/11/18 04:00:59;;;;;;;;;;;;;;;-143.85;100.00;70650.75;5014968;28;19916;-87
2021/11/18 04:03:28;;;;;;;;;;;;;;;-143.85;100.00;70650.75;5014919;28;19968;-87
2021/11/18 04:05:53;;;;;;;;;;;;;;;-143.85;100.00;70650.75;5014914;28;19979;-87
2021/11/18 04:08:18;;;;;;;;;;;;;;;-143.85;100.00;70650.75;5014898;28;20365;-87
2021/11/18 04:10:44;;;;;;;;;;;;;;;-143.85;100.00;70650.75;5015560;28;19909;-87
2021/11/18 04:13:09;;;;;;;;;;;;;;;-143.85;100.00;70650.75;5014792;28;19916;-86
2021/11/18 04:15:35;;;;;;;;;;;;;;;-143.85;100.00;70650.75;5014518;28;19910;-86
2021/11/18 04:18:01;;;;;;;;;;;;;;;-143.85;100.00;70650.75;5015201;28;19909;-89
2021/11/18 04:20:27;;;;;;;;;;;;;;;-143.85;100.00;70650.75;5015011;28;20361;-87
2021/11/18 04:22:53;;;;;;;;;;;;;;;-143.85;100.00;70650.75;5014675;28;20357;-87
2021/11/18 04:25:19;;;;;;;;;;;;;;;-143.85;100.00;70650.75;5014515;28;20408;-86
2021/11/18 04:27:45;;;;;;;;;;;;;;;-143.85;100.00;70650.75;5015505;28;20361;-86
2021/11/18 04:30:12;;;;;;;;;;;;;;;-143.85;100.00;70650.75;5014544;28;19909;-87
2021/11/18 04:32:37;;;;;;;;;;;;;;;-143.85;100.00;70650.75;5014505;28;19975;-87
2021/11/18 04:35:04;;;;;;;;;;;;;;;-143.85;100.00;70650.75;5014415;28;20349;-89
2021/11/18 04:37:29;;;;;;;;;;;;;;;-143.85;100.00;70650.75;5014438;28;19909;-87
2021/11/18 04:39:54;;;;;;;;;;;;;;;-143.85;100.00;70650.75;5014453;28;19909;-86
2021/11/18 04:42:20;;;;;;;;;;;;;;;-143.85;100.00;70650.75;5014130;28;19993;-88
2021/11/18 04:44:45;;;;;;;;;;;;;;;-143.85;100.00;70650.75;5014007;28;19909;-86
2021/11/18 04:47:12;;;;;;;;;;;;;;;-143.85;100.00;70650.75;5014532;28;20277;-87
2021/11/18 04:49:38;;;;;;;;;;;;;;;-143.85;100.00;70650.75;5015255;28;19916;-89
2021/11/18 04:52:05;;;;;;;;;;;;;;;-143.85;100.00;70650.75;5014263;28;19909;-87
2021/11/18 04:54:30;;;;;;;;;;;;;;;-143.85;100.00;70650.75;5013276;28;20365;-88
2021/11/18 04:56:56;;;;;;;;;;;;;;;-143.85;100.00;70650.75;5014003;28;19928;-86
2021/11/18 04:59:21;;;;;;;;;;;;;;;-143.85;100.00;70650.75;5013931;28;19915;-86
2021/11/18 05:01:46;;;;;;;;;;;;;;;-143.85;100.00;70650.75;5014147;28;19916;-87
2021/11/18 05:04:12;;;;;;;;;;;;;;;-143.85;100.00;70650.75;5013789;28;19916;-88
2021/11/18 05:06:37;;;;;;;;;;;;;;;-143.85;100.00;70650.75;5013927;28;19909;-89
2021/11/18 05:09:04;;;;;;;;;;;;;;;-143.85;100.00;70650.75;5013837;28;19914;-89
2021/11/18 05:11:30;;;;;;;;;;;;;;;-143.85;100.00;70650.75;5013631;28;19910;-87
2021/11/18 05:13:55;;;;;;;;;;;;;;;-143.85;100.00;70650.75;5013946;28;19932;-87
2021/11/18 05:16:20;;;;;;;;;;;;;;;-143.85;100.00;70650.75;5013686;28;19913;-85
2021/11/18 05:18:46;;;;;;;;;;;;;;;-143.85;100.00;70650.75;5013643;28;19917;-87
2021/11/18 05:21:13;;;;;;;;;;;;;;;-143.85;100.00;70650.75;5013659;28;19910;-87
2021/11/18 05:23:39;;;;;;;;;;;;;;;-143.85;100.00;70650.75;5014546;28;19917;-86
2021/11/18 05:26:04;;;;;;;;;;;;;;;-143.85;100.00;70650.75;5013600;28;19913;-87
2021/11/18 05:28:30;;;;;;;;;;;;;;;-143.85;100.00;70650.75;5014629;28;19913;-87
2021/11/18 05:30:55;;;;;;;;;;;;;;;-143.85;100.00;70650.75;5013534;28;19909;-85
2021/11/18 05:33:22;;;;;;;;;;;;;;;-143.85;100.00;70650.75;5013902;28;19992;-87
2021/11/18 05:35:47;;;;;;;;;;;;;;;-143.85;100.00;70650.75;5013620;28;20250;-86
2021/11/18 05:38:13;;;;;;;;;;;;;;;-143.85;100.00;70650.75;5013549;28;19958;-87
2021/11/18 05:40:39;;;;;;;;;;;;;;;-143.85;100.00;70650.75;5013480;28;20246;-85
2021/11/18 05:43:05;;;;;;;;;;;;;;;-143.85;100.00;70650.75;5013332;28;19909;-87
2021/11/18 05:45:33;;;;;;;;;;;;;;;-143.85;100.00;70650.75;5013376;28;19925;-88
2021/11/18 05:47:59;;;;;;;;;;;;;;;-143.85;100.00;70650.75;5013437;28;19959;-86
2021/11/18 05:50:25;;;;;;;;;;;;;;;-143.85;100.00;70650.75;5013525;28;19909;-87
2021/11/18 05:52:50;;;;;;;;;;;;;;;-143.85;100.00;70650.75;5013379;28;20427;-86
2021/11/18 05:55:17;;;;;;;;;;;;;;;-143.85;100.00;70650.75;5013171;28;20007;-85
2021/11/18 05:57:42;;;;;;;;;;;;;;;-143.85;100.00;70650.75;5014279;28;20013;-86
2021/11/18 06:00:09;;;;;;;;;;;;;;;-143.85;100.00;70650.75;5013149;28;19957;-87
2021/11/18 06:02:35;;;;;;;;;;;;;;;-143.85;100.00;70650.75;5013021;28;19950;-85
2021/11/18 06:05:00;;;;;;;;;;;;;;;-143.85;100.00;70650.75;5012920;28;19909;-85
2021/11/18 06:07:26;;;;;;;;;;;;;;;-143.85;100.00;70650.75;5013137;28;20368;-85
2021/11/18 06:09:53;;;;;;;;;;;;;;;-143.85;100.00;70650.75;5012959;28;19909;-86
2021/11/18 06:12:19;;;;;;;;;;;;;;;-143.85;100.00;70650.75;5013085;28;19920;-88
2021/11/18 06:14:44;;;;;;;;;;;;;;;-143.85;100.00;70650.75;5013335;28;19910;-85
2021/11/18 06:17:10;;;;;;;;;;;;;;;-143.85;100.00;70650.75;5012928;28;19909;-85
2021/11/18 06:19:35;;;;;;;;;;;;;;;-143.85;100.00;70650.75;5014005;28;19909;-85
2021/11/18 06:22:00;;;;;;;;;;;;;;;-143.85;100.00;70650.75;5012783;28;19909;-85
2021/11/18 06:24:26;;;;;;;;;;;;;;;-143.85;100.00;70650.75;5012520;28;19960;-85
2021/11/18 06:26:52;;;;;;;;;;;;;;;-143.85;100.00;70650.75;5012791;28;19910;-85
2021/11/18 06:29:20;;;;;;;;;;;;;;;-143.85;100.00;70650.75;5012734;28;19910;-86
2021/11/18 06:31:55;;;;;;;;;;;;;;;-143.85;100.00;70650.75;5013004;28;19916;-87
2021/11/18 06:34:21;;;;;;;;;;;;;;;-143.85;100.00;70650.75;5012967;28;19910;-85
2021/11/18 06:36:46;;;;;;;;;;;;;;;-143.85;100.00;70650.75;5013859;28;19913;-85
2021/11/18 06:39:12;;;;;;;;;;;;;;;-143.85;100.00;70650.75;5012555;28;19909;-85
2021/11/18 06:41:38;;;;;;;;;;;;;;;-143.85;100.00;70650.75;5012535;28;19909;-84
2021/11/18 06:44:04;;;;;;;;;;;;;;;-143.85;100.00;70650.75;5012342;28;19917;-86
2021/11/18 06:46:31;;;;;;;;;;;;;;;-143.85;100.00;70650.75;5012367;28;19909;-85
2021/11/18 06:48:57;;;;;;;;;;;;;;;-143.85;100.00;70650.75;5012458;28;19913;-85
2021/11/18 06:51:23;;;;;;;;;;;;;;;-143.85;100.00;70650.75;5012430;28;19910;-85
2021/11/18 06:53:50;;;;;;;;;;;;;;;-143.85;100.00;70650.75;5012436;28;19910;-86
2021/11/18 06:56:16;;;;;;;;;;;;;;;-143.85;100.00;70650.75;5012337;28;19915;-85
2021/11/18 06:58:42;;;;;;;;;;;;;;;-143.85;100.00;70650.75;5012440;28;19913;-85
2021/11/18 07:01:07;;;;;;;;;;;;;;;-143.85;100.00;70650.75;5013577;28;19909;-85
2021/11/18 07:03:33;;;;;;;;;;;;;;;-143.85;100.00;70650.75;5012309;28;20280;-84
2021/11/18 07:05:58;;;;;;;;;;;;;;;-143.85;100.00;70650.75;5012269;28;20321;-83
2021/11/18 07:08:23;;;;;;;;;;;;;;;-143.85;100.00;70650.75;5012144;28;19909;-84
2021/11/18 07:10:49;;;;;;;;;;;;;;;-143.85;100.00;70650.75;5012731;28;20246;-83
2021/11/18 07:13:22;;;;;;;;;;;;;;;-143.85;100.00;70650.75;5012072;28;19916;-83
2021/11/18 07:15:47;;;;;;;;;;;;;;;-143.85;100.00;70650.75;5012396;28;19909;-83
2021/11/18 07:18:13;;;;;;;;;;;;;;;-143.85;100.00;70650.75;5015698;28;19909;-82
2021/11/18 07:20:39;;;;;;;;;;;;;;;-143.85;100.00;70650.75;5015790;28;19909;-83
2021/11/18 07:23:05;;;;;;;;;;;;;;;-143.85;100.00;70650.75;5015402;28;20421;-82
2021/11/18 07:25:31;;;;;;;;;;;;;;;-143.85;100.00;70650.75;5015568;28;20006;-82
2021/11/18 07:27:56;;;;;;;;;;;;;;;-143.85;100.00;70650.75;5015588;28;19913;-81
2021/11/18 07:30:22;;;;;;;;;;;;;;;-143.85;100.00;70650.75;5015436;28;19949;-82
2021/11/18 07:32:48;;;;;;;;;;;;;;;-143.85;100.00;70650.75;5015484;28;19959;-84
2021/11/18 07:35:14;;;;;;;;;;;;;;;-143.85;100.00;70650.75;5016570;28;20349;-82
2021/11/18 07:37:39;;;;;;;;;;;;;;;-143.85;100.00;70650.75;5015091;28;19916;-82
2021/11/18 07:40:05;;;;;;;;;;;;;;;-143.85;100.00;70650.75;5016455;28;19909;-82
2021/11/18 07:42:32;;;;;;;;;;;;;;;-143.85;100.00;70650.75;5015157;28;20303;-82
2021/11/18 07:44:57;;;;;;;;;;;;;;;-143.85;100.00;70650.75;5015045;28;20365;-81
2021/11/18 07:47:23;;;;;;;;;;;;;;;-143.85;100.00;70650.75;5014827;28;19910;-82
2021/11/18 07:49:48;;;;;;;;;;;;;;;-143.85;100.00;70650.75;5015017;28;19917;-81
2021/11/18 07:52:13;;;;;;;;;;;;;;;-143.85;100.00;70650.75;5015169;28;19916;-81
2021/11/18 07:54:39;;;;;;;;;;;;;;;-143.85;100.00;70650.75;5014985;28;19909;-80
2021/11/18 07:57:04;;;;;;;;;;;;;;;-143.85;100.00;70650.75;5014991;28;19916;-81
2021/11/18 07:59:29;;;;;;;;;;;;;;;-143.85;100.00;70650.75;5014966;28;20285;-80
2021/11/18 08:01:55;;;;;;;;;;;;;;;-143.85;100.00;70650.75;5015045;28;19915;-81
2021/11/18 08:04:20;;;;;;;;;;;;;;;-143.85;100.00;70650.75;5014886;28;19909;-82
2021/11/18 08:06:46;;;;;;;;;;;;;;;-143.85;100.00;70650.75;5014774;28;20346;-81
2021/11/18 08:09:12;;;;;;;;;;;;;;;-143.85;100.00;70650.75;5014626;28;19910;-80
2021/11/18 08:11:44;;;;;;;;;;;;;;;-143.85;100.00;70650.75;5014980;28;20380;-82
2021/11/18 08:14:10;;;;;;;;;;;;;;;-143.85;100.00;70650.75;5014593;28;19910;-81
2021/11/18 08:16:35;;;;;;;;;;;;;;;-143.85;100.00;70650.75;5018069;28;19958;-83
2021/11/18 08:19:02;;;;;;;;;;;;;;;-143.85;100.00;70650.75;5014586;28;19982;-82
2021/11/18 08:21:27;;;;;;;;;;;;;;;-143.85;100.00;70650.75;5014567;28;19909;-81
2021/11/18 08:23:53;;;;;;;;;;;;;;;-143.85;100.00;70650.75;5014687;28;19917;-82
2021/11/18 08:26:18;;;;;;;;;;;;;;;-143.85;100.00;70650.75;5014717;28;19916;-80
2021/11/18 08:28:44;;;;;;;;;;;;;;;-143.85;100.00;70650.75;5014535;28;19950;-80
2021/11/18 08:31:11;;;;;;;;;;;;;;;-143.85;100.00;70650.75;5014609;28;19909;-80
2021/11/18 08:33:37;;;;;;;;;;;;;;;-143.85;100.00;70650.75;5014375;28;19955;-82
2021/11/18 08:36:02;;;;;;;;;;;;;;;-143.85;100.00;70650.75;5013984;28;19914;-79
2021/11/18 08:38:27;;;;;;;;;;;;;;;-143.85;100.00;70650.75;5014650;28;19909;-81
2021/11/18 08:40:54;;;;;;;;;;;;;;;-143.85;100.00;70650.75;5014560;28;19943;-80
2021/11/18 08:43:20;;;;;;;;;;;;;;;-143.85;100.00;70650.75;5014016;28;20012;-81
2021/11/18 08:45:46;;;;;;;;;;;;;;;-143.85;100.00;70650.75;5013922;28;19956;-79
2021/11/18 08:48:11;;;;;;;;;;;;;;;-143.85;100.00;70650.75;5013557;28;19975;-80
2021/11/18 08:50:39;;;;;;;;;;;;;;;-143.85;100.00;70650.75;5013950;28;19909;-79
2021/11/18 08:53:05;;;;;;;;;;;;;;;-143.85;100.00;70650.75;5013888;28;19924;-82
2021/11/18 08:55:33;;;;;;;;;;;;;;;-143.85;100.00;70650.75;5013765;28;19909;-81
2021/11/18 08:57:59;;;;;;;;;;;;;;;-143.85;100.00;70650.75;5014085;28;20007;-81
2021/11/18 09:00:32;;;;;;;;;;;;;;;-143.85;100.00;70650.75;5013837;28;19973;-79
2021/11/18 09:02:58;;;;;;;;;;;;;;;-143.85;100.00;70650.75;5014204;28;19963;-79
2021/11/18 09:05:25;;;;;;;;;;;;;;;-143.85;100.00;70650.75;5013559;28;19909;-80
2021/11/18 09:07:50;;;;;;;;;;;;;;;-143.85;100.00;70650.75;5014175;28;19917;-83
2021/11/18 09:10:16;;;;;;;;;;;;;;;-143.85;100.00;70650.75;5013686;28;20511;-80
2021/11/18 09:12:42;;;;;;;;;;;;;;;-143.85;100.00;70650.75;5013639;28;19909;-81
2021/11/18 09:15:08;;;;;;;;;;;;;;;-143.85;100.00;70650.75;5013705;28;19909;-80
2021/11/18 09:17:33;;;;;;;;;;;;;;;-143.85;100.00;70650.75;5013879;28;20427;-82
2021/11/18 09:19:59;;;;;;;;;;;;;;;-143.85;100.00;70650.75;5013711;28;19909;-81
2021/11/18 09:22:24;;;;;;;;;;;;;;;-143.85;100.00;70650.75;5013508;28;19909;-80
2021/11/18 09:24:51;;;;;;;;;;;;;;;-143.85;100.00;70650.75;5013110;28;20416;-79
2021/11/18 09:27:19;;;;;;;;;;;;;;;-143.85;100.00;70650.75;5013401;28;20357;-82
2021/11/18 09:29:46;;;;;;;;;;;;;;;-143.85;100.00;70650.75;5013128;28;19917;-79
2021/11/18 09:32:11;;;;;;;;;;;;;;;-143.85;100.00;70650.75;5013483;28;19915;-79
2021/11/18 09:34:38;;;;;;;;;;;;;;;-143.85;100.00;70650.75;5013204;28;19910;-81
2021/11/18 09:37:03;;;;;;;;;;;;;;;-143.85;100.00;70650.75;5013219;28;20354;-82
2021/11/18 09:39:29;;;;;;;;;;;;;;;-143.85;100.00;70650.75;5012773;28;19915;-80
2021/11/18 09:42:16;;;;;;;;;;;;;;;-143.85;100.00;70650.75;5013089;28;20007;-81
2021/11/18 09:44:44;;;;;;;;;;;;;;;-143.85;100.00;70650.75;5014586;28;19948;-80
2021/11/18 09:47:13;;;;;;;;;;;;;;;-143.85;100.00;70650.75;5013027;28;19909;-80
2021/11/18 09:49:44;;;;;;;;;;;;;;;-143.85;100.00;70650.75;5013889;28;20011;-80
2021/11/18 09:52:26;;;;;;;;;;;;;;;-143.85;100.00;70650.75;5013076;28;19909;-77
2021/11/18 09:55:09;;;;;;;;;;;;;;;-143.85;100.00;70650.75;5013154;28;19909;-82
2021/11/18 09:57:34;;;;;;;;;;;;;;;-143.85;100.00;70650.75;5012779;28;19909;-82
2021/11/18 10:00:14;;;;;;;;;;;;;;;-143.85;100.00;70650.75;5012909;28;19916;-81
2021/11/18 10:02:43;;;;;;;;;;;;;;;-143.85;100.00;70650.75;5013544;28;19916;-82
2021/11/18 10:05:15;;;;;;;;;;;;;;;-143.85;100.00;70650.75;5011737;28;19909;-80
2021/11/18 10:07:49;;;;;;;;;;;;;;;-143.85;100.00;70650.75;5012824;28;19909;-80
2021/11/18 10:10:18;;;;;;;;;;;;;;;-143.85;100.00;70650.75;5013116;28;19909;-80
2021/11/18 10:13:08;;;;;;;;;;;;;;;-143.85;100.00;70650.75;5012756;28;19909;-80
2021/11/18 10:15:37;;;;;;;;;;;;;;;-143.85;100.00;70650.75;5013146;28;19909;-81
2021/11/18 10:18:28;;;;;;;;;;;;;;;-143.85;100.00;70650.75;5013928;28;19917;-82
2021/11/18 10:20:57;;;;;;;;;;;;;;;-143.85;100.00;70650.75;5010340;28;20003;-80
2021/11/18 10:23:27;;;;;;;;;;;;;;;-143.85;100.00;70650.75;5012553;28;20008;-82
2021/11/18 10:25:58;;;;;;;;;;;;;;;-143.85;100.00;70650.75;5013100;28;19975;-81
2021/11/18 10:28:23;;;;;;;;;;;;;;;-143.85;100.00;70650.75;5012547;28;19913;-79
2021/11/18 10:30:54;;;;;;;;;;;;;;;-143.85;100.00;70650.75;5012627;28;19917;-81
2021/11/18 10:33:30;;;;;;;;;;;;;;;-143.85;100.00;70650.75;5012637;28;19909;-80
2021/11/18 10:36:04;;;;;;;;;;;;;;;-143.85;100.00;70650.75;5013027;28;19948;-81
2021/11/18 10:38:32;;;;;;;;;;;;;;;-143.85;100.00;70650.75;5012764;28;19916;-80
2021/11/18 10:41:19;;;;;;;;;;;;;;;-143.85;100.00;70650.75;5012806;28;19916;-81
2021/11/18 10:44:01;;;;;;;;;;;;;;;-143.85;100.00;70650.75;5012545;28;19909;-81
2021/11/18 10:46:31;;;;;;;;;;;;;;;-143.85;100.00;70650.75;5012716;28;19914;-81
2021/11/18 10:49:11;;;;;;;;;;;;;;;-143.85;100.00;70650.75;5012377;28;19921;-79
2021/11/18 10:51:58;;;;;;;;;;;;;;;-143.85;100.00;70650.75;5014254;28;19928;-82
2021/11/18 10:54:40;;;;;;;;;;;;;;;-143.85;100.00;70650.75;5016713;28;19909;-82
2021/11/18 10:57:07;;;;;;;;;;;;;;;-143.85;100.00;70650.75;5016512;28;19993;-81
2021/11/18 10:59:35;;;;;;;;;;;;;;;-143.85;100.00;70650.75;5016337;28;20392;-81
2021/11/18 11:02:00;;;;;;;;;;;;;;;-143.85;100.00;70650.75;5016818;28;19974;-81
2021/11/18 11:04:37;;;;;;;;;;;;;;;-143.85;100.00;70650.75;5015907;28;20440;-80
2021/11/18 11:07:02;;;;;;;;;;;;;;;-143.85;100.00;70650.75;5017489;28;19959;-80
2021/11/18 11:09:36;;;;;;;;;;;;;;;-143.85;100.00;70650.75;5016258;28;20011;-80
2021/11/18 11:12:31;;;;;;;;;;;;;;;-143.85;100.00;70650.75;5016312;28;20006;-82
2021/11/18 11:15:15;;;;;;;;;;;;;;;-143.85;100.00;70650.75;5007156;28;19913;-81
2021/11/18 11:17:46;;;;;;;;;;;;;;;-143.85;100.00;70650.75;5015817;28;19972;-79
2021/11/18 11:20:15;;;;;;;;;;;;;;;-143.85;100.00;70650.75;5015752;28;19962;-80
2021/11/18 11:22:51;;;;;;;;;;;;;;;-143.85;100.00;70650.75;5015651;28;19914;-80
2021/11/18 11:25:21;;;;;;;;;;;;;;;-143.85;100.00;70650.75;5015534;28;19917;-80
2021/11/18 11:27:58;;;;;;;;;;;;;;;-143.85;100.00;70650.75;5015671;28;19940;-80
2021/11/18 11:30:27;;;;;;;;;;;;;;;-143.85;100.00;70650.75;5015519;28;19916;-80
2021/11/18 11:33:07;;;;;;;;;;;;;;;-143.85;100.00;70650.75;5015461;28;19909;-80
2021/11/18 11:35:48;;;;;;;;;;;;;;;-143.85;100.00;70650.75;5015389;28;20013;-79
2021/11/18 11:38:23;;;;;;;;;;;;;;;-143.85;100.00;70650.75;5016528;28;20373;-79
2021/11/18 11:41:00;;;;;;;;;;;;;;;-143.85;100.00;70650.75;5015370;28;20277;-79
2021/11/18 11:43:38;;;;;;;;;;;;;;;-143.85;100.00;70650.75;5015176;28;19910;-80
2021/11/18 11:46:23;;;;;;;;;;;;;;;-143.85;100.00;70650.75;5015682;28;20242;-79
2021/11/18 11:48:55;;;;;;;;;;;;;;;-143.85;100.00;70650.75;5015147;28;19955;-78
2021/11/18 11:51:26;;;;;;;;;;;;;;;-143.85;100.00;70650.75;5015315;28;19917;-80
2021/11/18 11:53:51;;;;;;;;;;;;;;;-143.85;100.00;70650.75;5015070;28;20431;-80
2021/11/18 11:56:33;;;;;;;;;;;;;;;-143.85;100.00;70650.75;5015178;28;19913;-78
2021/11/18 11:59:05;;;;;;;;;;;;;;;-143.85;100.00;70650.75;5014462;28;19948;-80
2021/11/18 12:01:49;;;;;;;;;;;;;;;-143.85;100.00;70650.75;5014083;28;19917;-81
2021/11/18 12:04:36;;;;;;;;;;;;;;;-143.85;100.00;70650.75;5014899;28;19910;-79
2021/11/18 12:07:20;;;;;;;;;;;;;;;-143.85;100.00;70650.75;5015164;28;20003;-79
2021/11/18 12:09:48;;;;;;;;;;;;;;;-143.85;100.00;70650.75;5014738;28;19909;-79
2021/11/18 12:12:30;;;;;;;;;;;;;;;-143.85;100.00;70650.75;5014837;28;20007;-80
2021/11/18 12:14:56;;;;;;;;;;;;;;;-143.85;100.00;70650.75;5014983;28;19948;-79
2021/11/18 12:17:27;;;;;;;;;;;;;;;-143.85;100.00;70650.75;5014771;28;19959;-79
2021/11/18 12:20:05;;;;;;;;;;;;;;;-143.85;100.00;70650.75;5014548;28;20267;-79
2021/11/18 12:22:39;;;;;;;;;;;;;;;-143.85;100.00;70650.75;5014441;28;19909;-79